createdAt,value
2022-10-09T00:00:20.080Z,46.0
2022-10-09T00:05:20.234Z,45.7
2022-10-09T00:10:20.058Z,45.6
2022-10-09T00:15:20.178Z,45.4
2022-10-09T00:20:17.076Z,45.2
2022-10-09T00:25:17.026Z,45.1
2022-10-09T00:30:20.192Z,44.8
2022-10-09T00:35:20.197Z,44.7
2022-10-09T00:40:20.132Z,44.5
2022-10-09T00:45:20.152Z,44.4
2022-10-09T00:50:20.310Z,44.2
2022-10-09T00:55:20.231Z,44.0
2022-10-09T01:00:20.341Z,43.7
2022-10-09T01:05:20.306Z,43.6
2022-10-09T01:10:20.300Z,43.4
2022-10-09T01:15:17.106Z,43.4
2022-10-09T01:20:20.290Z,43.2
2022-10-09T01:25:20.389Z,43.1
2022-10-09T01:30:20.179Z,42.9
2022-10-09T01:35:20.321Z,42.7
2022-10-09T01:40:20.326Z,42.5
2022-10-09T01:45:20.416Z,42.5
2022-10-09T01:50:20.414Z,44.1
2022-10-09T01:55:20.248Z,45.4
2022-10-09T02:00:20.384Z,45.9
2022-10-09T02:05:17.228Z,46.3
2022-10-09T02:10:17.270Z,46.6
2022-10-09T02:15:20.316Z,46.7
2022-10-09T02:20:20.347Z,46.8
2022-10-09T02:25:20.383Z,46.7
2022-10-09T02:30:20.267Z,46.5
2022-10-09T02:35:20.376Z,46.4
2022-10-09T02:40:20.420Z,46.2
2022-10-09T02:45:20.415Z,46.1
2022-10-09T02:50:20.401Z,45.9
2022-10-09T02:55:20.483Z,45.6
2022-10-09T03:00:17.392Z,45.6
2022-10-09T03:05:17.350Z,45.8
2022-10-09T03:10:20.448Z,45.7
2022-10-09T03:15:20.513Z,46.0
2022-10-09T03:20:20.443Z,46.5
2022-10-09T03:25:20.524Z,46.8
2022-10-09T03:30:20.357Z,46.9
2022-10-09T03:35:20.401Z,46.9
2022-10-09T03:40:20.637Z,46.7
2022-10-09T03:45:20.458Z,46.6
2022-10-09T03:50:20.574Z,46.5
2022-10-09T03:55:17.437Z,46.4
2022-10-09T04:00:19.764Z,46.1
2022-10-09T04:05:16.735Z,46.0
2022-10-09T04:10:16.639Z,45.8
2022-10-09T04:15:19.776Z,45.6
2022-10-09T04:20:19.769Z,45.5
2022-10-09T04:25:19.804Z,45.4
2022-10-09T04:30:19.675Z,45.3
2022-10-09T04:35:19.860Z,45.2
2022-10-09T04:40:19.767Z,45.2
2022-10-09T04:45:19.871Z,45.2
2022-10-09T04:50:19.827Z,45.0
2022-10-09T04:55:19.823Z,44.9
2022-10-09T05:00:16.919Z,44.7
2022-10-09T05:05:16.732Z,44.5
2022-10-09T05:10:20.045Z,44.3
2022-10-09T05:15:19.855Z,44.0
2022-10-09T05:20:20.112Z,43.7
2022-10-09T05:25:19.870Z,43.5
2022-10-09T05:30:19.830Z,43.3
2022-10-09T05:35:19.986Z,43.1
2022-10-09T05:40:19.902Z,42.8
2022-10-09T05:45:19.940Z,42.5
2022-10-09T05:50:19.926Z,42.2
2022-10-09T05:55:16.900Z,42.0
2022-10-09T06:00:16.844Z,41.6
2022-10-09T06:05:20.010Z,41.4
2022-10-09T06:10:19.974Z,41.1
2022-10-09T06:15:20.179Z,40.8
2022-10-09T06:20:19.984Z,40.7
2022-10-09T06:25:19.954Z,40.5
2022-10-09T06:30:19.864Z,40.3
2022-10-09T06:35:20.019Z,39.8
2022-10-09T06:40:20.120Z,39.5
2022-10-09T06:45:19.997Z,39.3
2022-10-09T06:50:16.997Z,39.1
2022-10-09T06:55:20.038Z,39.0
2022-10-09T07:00:20.120Z,38.8
2022-10-09T07:05:20.017Z,38.9
2022-10-09T07:10:24.903Z,39.0
2022-10-09T07:15:20.106Z,38.9
2022-10-09T07:20:20.149Z,38.7
2022-10-09T07:25:20.114Z,38.5
2022-10-09T07:30:20.015Z,38.3
2022-10-09T07:35:20.116Z,38.2
2022-10-09T07:40:17.100Z,38.4
2022-10-09T07:45:17.017Z,38.6
2022-10-09T07:50:20.347Z,38.7
2022-10-09T07:55:20.142Z,38.8
2022-10-09T08:00:20.127Z,38.9
2022-10-09T08:05:20.156Z,38.8
2022-10-09T08:10:20.148Z,38.8
2022-10-09T08:15:20.150Z,38.8
2022-10-09T08:20:20.165Z,38.8
2022-10-09T08:25:20.402Z,38.7
2022-10-09T08:30:20.083Z,38.8
2022-10-09T08:35:17.114Z,38.7
2022-10-09T08:40:17.210Z,38.5
2022-10-09T08:45:20.313Z,38.4
2022-10-09T08:50:20.301Z,38.4
2022-10-09T08:55:20.222Z,38.5
2022-10-09T09:00:20.317Z,38.6
2022-10-09T09:05:20.309Z,38.7
2022-10-09T09:10:20.244Z,38.7
2022-10-09T09:15:20.285Z,38.6
2022-10-09T09:20:20.326Z,38.6
2022-10-09T09:25:20.376Z,38.5
2022-10-09T09:30:17.206Z,38.4
2022-10-09T09:35:20.535Z,38.3
2022-10-09T09:40:37.757Z,38.4
2022-10-09T09:45:20.362Z,38.4
2022-10-09T09:50:45.536Z,38.4
2022-10-09T09:55:20.365Z,38.4
2022-10-09T10:00:20.413Z,38.3
2022-10-09T10:05:20.537Z,38.2
2022-10-09T10:10:25.076Z,38.2
2022-10-09T10:15:20.399Z,38.2
2022-10-09T10:20:17.337Z,38.1
2022-10-09T10:25:17.283Z,38.0
2022-10-09T10:30:20.470Z,38.0
2022-10-09T10:35:20.462Z,38.1
2022-10-09T10:40:20.573Z,38.1
2022-10-09T10:45:20.518Z,38.0
2022-10-09T10:50:20.483Z,37.9
2022-10-09T10:55:20.497Z,37.9
2022-10-09T11:00:20.700Z,37.9
2022-10-09T11:05:20.539Z,37.9
2022-10-09T11:10:20.548Z,37.9
2022-10-09T11:15:17.466Z,38.0
2022-10-09T11:20:17.458Z,38.0
2022-10-09T11:25:20.587Z,38.2
2022-10-09T11:30:20.486Z,38.3
2022-10-09T11:35:18.593Z,38.5
2022-10-09T11:40:18.521Z,38.8
2022-10-09T11:45:18.660Z,39.0
2022-10-09T11:50:18.787Z,39.3
2022-10-09T11:55:15.483Z,39.8
2022-10-09T12:00:15.504Z,40.2
2022-10-09T12:05:18.878Z,40.7
2022-10-09T12:10:18.705Z,41.1
2022-10-09T12:15:18.693Z,41.4
2022-10-09T12:20:18.698Z,41.6
2022-10-09T12:25:18.799Z,41.9
2022-10-09T12:30:18.540Z,42.4
2022-10-09T12:35:18.626Z,43.0
2022-10-09T12:40:18.921Z,43.6
2022-10-09T12:45:15.589Z,44.2
2022-10-09T12:50:15.620Z,44.8
2022-10-09T12:55:15.768Z,45.2
2022-10-09T13:00:18.830Z,45.6
2022-10-09T13:05:18.801Z,46.0
2022-10-09T13:10:18.774Z,46.2
2022-10-09T13:15:19.193Z,46.6
2022-10-09T13:20:18.770Z,46.8
2022-10-09T13:25:18.747Z,47.3
2022-10-09T13:30:18.750Z,47.9
2022-10-09T13:35:18.847Z,48.5
2022-10-09T13:40:15.804Z,49.1
2022-10-09T13:45:15.738Z,49.5
2022-10-09T13:50:18.917Z,49.8
2022-10-09T13:55:18.857Z,50.3
2022-10-09T14:00:18.833Z,50.5
2022-10-09T14:05:18.956Z,50.7
2022-10-09T14:10:22.986Z,50.9
2022-10-09T14:15:18.856Z,51.2
2022-10-09T14:20:18.883Z,51.6
2022-10-09T14:25:18.841Z,51.8
2022-10-09T14:30:19.821Z,52.1
2022-10-09T14:35:21.580Z,52.3
2022-10-09T14:40:19.849Z,52.4
2022-10-09T14:45:19.844Z,52.5
2022-10-09T14:50:19.988Z,52.7
2022-10-09T14:55:19.869Z,53.1
2022-10-09T15:00:19.928Z,53.7
2022-10-09T15:05:16.814Z,54.4
2022-10-09T15:10:16.778Z,55.2
2022-10-09T15:15:20.133Z,55.3
2022-10-09T15:20:19.942Z,54.8
2022-10-09T15:25:19.968Z,55.0
2022-10-09T15:30:19.870Z,56.0
2022-10-09T15:35:19.933Z,55.7
2022-10-09T15:40:20.145Z,55.3
2022-10-09T15:45:20.046Z,55.4
2022-10-09T15:50:19.966Z,55.4
2022-10-09T15:55:20.129Z,56.0
2022-10-09T16:00:16.887Z,56.2
2022-10-09T16:05:16.906Z,56.4
2022-10-09T16:10:20.114Z,56.3
2022-10-09T16:15:20.127Z,56.4
2022-10-09T16:20:20.348Z,56.4
2022-10-09T16:25:20.101Z,56.6
2022-10-09T16:30:19.924Z,56.4
2022-10-09T16:35:20.458Z,56.5
2022-10-09T16:40:25.380Z,56.9
2022-10-09T16:45:20.039Z,56.8
2022-10-09T16:50:17.167Z,56.8
2022-10-09T16:55:16.968Z,57.0
2022-10-09T17:00:20.334Z,57.2
2022-10-09T17:05:20.157Z,57.8
2022-10-09T17:10:20.165Z,57.5
2022-10-09T17:15:20.152Z,57.8
2022-10-09T17:20:20.202Z,57.8
2022-10-09T17:25:20.119Z,57.7
2022-10-09T17:30:20.065Z,57.7
2022-10-09T17:35:20.111Z,57.7
2022-10-09T17:40:20.143Z,57.6
2022-10-09T17:45:17.084Z,57.4
2022-10-09T17:50:17.036Z,57.6
2022-10-09T17:55:20.376Z,57.8
2022-10-09T18:00:21.976Z,57.8
2022-10-09T18:05:20.153Z,57.8
2022-10-09T18:10:20.144Z,58.1
2022-10-09T18:15:20.221Z,57.8
2022-10-09T18:20:20.234Z,58.1
2022-10-09T18:25:20.222Z,58.1
2022-10-09T18:30:20.134Z,58.2
2022-10-09T18:35:20.302Z,58.5
2022-10-09T18:40:17.169Z,58.3
2022-10-09T18:45:20.601Z,58.4
2022-10-09T18:50:20.308Z,58.6
2022-10-09T18:55:20.210Z,58.8
2022-10-09T19:00:20.428Z,59.1
2022-10-09T19:05:20.277Z,58.9
2022-10-09T19:10:20.278Z,59.0
2022-10-09T19:15:20.332Z,59.3
2022-10-09T19:20:20.304Z,59.5
2022-10-09T19:25:20.289Z,59.5
2022-10-09T19:30:17.244Z,59.8
2022-10-09T19:35:17.290Z,59.9
2022-10-09T19:40:20.327Z,59.8
2022-10-09T19:45:20.498Z,59.8
2022-10-09T19:50:20.834Z,59.8
2022-10-09T19:55:21.005Z,59.7
2022-10-09T20:00:20.416Z,59.6
2022-10-09T20:05:20.578Z,59.6
2022-10-09T20:10:20.379Z,59.6
2022-10-09T20:15:20.379Z,59.8
2022-10-09T20:20:20.325Z,59.9
2022-10-09T20:25:17.279Z,60.0
2022-10-09T20:30:17.265Z,59.8
2022-10-09T20:35:20.708Z,59.6
2022-10-09T20:40:20.496Z,59.6
2022-10-09T20:45:20.455Z,59.5
2022-10-09T20:50:20.501Z,59.5
2022-10-09T20:55:20.383Z,59.6
2022-10-09T21:00:20.519Z,59.7
2022-10-09T21:05:20.417Z,59.8
2022-10-09T21:10:20.524Z,60.0
2022-10-09T21:15:20.751Z,60.1
2022-10-09T21:20:17.315Z,60.0
2022-10-09T21:25:17.536Z,59.8
2022-10-09T21:30:20.376Z,59.7
2022-10-09T21:35:20.537Z,59.5
2022-10-09T21:40:20.547Z,59.4
2022-10-09T21:45:20.743Z,59.4
2022-10-09T21:50:20.535Z,59.3
2022-10-09T21:55:20.505Z,59.1
2022-10-09T22:00:20.503Z,59.0
2022-10-09T22:05:20.621Z,58.8
2022-10-09T22:10:17.421Z,58.6
2022-10-09T22:15:18.581Z,58.4
2022-10-09T22:20:18.508Z,58.2
2022-10-09T22:25:18.616Z,57.8
2022-10-09T22:30:18.477Z,57.6
2022-10-09T22:35:18.678Z,57.3
2022-10-09T22:40:18.709Z,56.9
2022-10-09T22:45:18.579Z,56.5
2022-10-09T22:50:15.456Z,56.2
2022-10-09T22:55:15.479Z,55.9
2022-10-09T23:00:18.839Z,55.3
2022-10-09T23:05:18.695Z,54.8
2022-10-09T23:10:18.679Z,54.4
2022-10-09T23:15:18.614Z,54.2
2022-10-09T23:20:18.676Z,53.9
2022-10-09T23:25:18.704Z,53.8
2022-10-09T23:30:18.572Z,53.5
2022-10-09T23:35:18.682Z,53.2
2022-10-09T23:40:15.622Z,52.9
2022-10-09T23:45:15.591Z,52.7
2022-10-09T23:50:18.972Z,52.4
2022-10-09T23:55:18.715Z,52.1
